Time;durP1;ratioP1;P1;durP2;ratioP2;P2;SDS_P1;SDS_P2;PMS_P1;PMS_P2;Temp;Humidity;BMP_temperature;BMP_pressure;BME280_temperature;BME280_humidity;BME280_pressure;Samples;Min_cycle;Max_cycle;Signal;HPM_P1;HPM_P2
2023/06/17 00:00:35;;;;;;;31.10;24.70;;;;;;;;;;107068;1257;60539;-79
2023/06/17 00:03:22;;;;;;;33.60;24.50;;;;;;;;;;107057;1257;60423;-80
2023/06/17 00:05:48;;;;;;;33.20;25.00;;;;;;;;;;107039;1256;60796;-80
2023/06/17 00:08:14;;;;;;;35.90;26.30;;;;;;;;;;107004;1251;60460;-81
2023/06/17 00:10:41;;;;;;;34.50;25.80;;;;;;;;;;107013;1255;60428;-80
2023/06/17 00:13:08;;;;;;;36.60;26.50;;;;;;;;;;107048;1251;60469;-80
2023/06/17 00:15:36;;;;;;;31.70;22.90;;;;;;;;;;107113;1256;60527;-81
2023/06/17 00:18:03;;;;;;;31.50;25.40;;;;;;;;;;107128;1256;60290;-81
2023/06/17 00:20:30;;;;;;;34.70;24.50;;;;;;;;;;107063;1251;60312;-81
2023/06/17 00:22:56;;;;;;;33.10;25.20;;;;;;;;;;106975;1257;60416;-82
2023/06/17 00:25:23;;;;;;;36.70;26.90;;;;;;;;;;106959;1254;60436;-80
2023/06/17 00:27:49;;;;;;;35.10;24.80;;;;;;;;;;106948;1252;60485;-79
2023/06/17 00:30:15;;;;;;;35.50;25.90;;;;;;;;;;106981;1257;60452;-81
2023/06/17 00:32:42;;;;;;;31.40;23.30;;;;;;;;;;106994;1257;60529;-79
2023/06/17 00:35:08;;;;;;;31.00;25.10;;;;;;;;;;106932;1257;60539;-79
2023/06/17 00:37:35;;;;;;;32.80;24.50;;;;;;;;;;106995;1257;60354;-80
2023/06/17 00:40:02;;;;;;;31.40;25.50;;;;;;;;;;107078;1254;60545;-79
2023/06/17 00:42:31;;;;;;;34.20;26.20;;;;;;;;;;107005;1257;60673;-79
2023/06/17 00:44:58;;;;;;;32.60;25.20;;;;;;;;;;106916;1257;60544;-81
2023/06/17 00:47:24;;;;;;;30.90;24.30;;;;;;;;;;107021;1254;60549;-82
2023/06/17 00:49:50;;;;;;;36.70;25.30;;;;;;;;;;107097;1264;60538;-80
2023/06/17 00:52:17;;;;;;;32.60;24.10;;;;;;;;;;107093;1256;61072;-81
2023/06/17 00:54:43;;;;;;;33.50;23.50;;;;;;;;;;107080;1255;60567;-81
2023/06/17 00:57:11;;;;;;;30.70;23.40;;;;;;;;;;107124;1251;60530;-80
2023/06/17 00:59:38;;;;;;;36.10;24.40;;;;;;;;;;107146;1253;61167;-79
2023/06/17 01:02:06;;;;;;;31.00;24.30;;;;;;;;;;107159;1256;59897;-81
2023/06/17 01:04:33;;;;;;;28.80;22.60;;;;;;;;;;107096;1256;60549;-81
2023/06/17 01:07:03;;;;;;;33.60;24.40;;;;;;;;;;107014;1251;60593;-81
2023/06/17 01:09:32;;;;;;;30.60;23.80;;;;;;;;;;106964;1256;60392;-79
2023/06/17 01:11:58;;;;;;;29.20;24.40;;;;;;;;;;107136;1251;59054;-81
2023/06/17 01:14:25;;;;;;;29.40;23.90;;;;;;;;;;106501;1255;60504;-79
2023/06/17 01:16:54;;;;;;;29.40;22.50;;;;;;;;;;107070;1256;60513;-79
2023/06/17 01:19:21;;;;;;;31.90;22.20;;;;;;;;;;107314;1257;60418;-81
2023/06/17 01:21:48;;;;;;;28.40;23.00;;;;;;;;;;107096;1254;60341;-79
2023/06/17 01:24:26;;;;;;;31.40;24.40;;;;;;;;;;106860;1258;60044;-81
2023/06/17 01:26:57;;;;;;;28.60;22.80;;;;;;;;;;107054;1254;62166;-80
2023/06/17 01:29:23;;;;;;;28.80;22.40;;;;;;;;;;106987;1254;60457;-80
2023/06/17 01:31:50;;;;;;;31.10;22.10;;;;;;;;;;107004;1257;60445;-79
2023/06/17 01:34:17;;;;;;;29.50;22.10;;;;;;;;;;106978;1256;60537;-81
2023/06/17 01:36:43;;;;;;;27.80;20.50;;;;;;;;;;106989;1255;60355;-81
2023/06/17 01:39:10;;;;;;;28.10;20.70;;;;;;;;;;107025;1254;60441;-81
2023/06/17 01:41:37;;;;;;;28.70;21.10;;;;;;;;;;106902;1254;61595;-81
2023/06/17 01:44:04;;;;;;;32.00;23.20;;;;;;;;;;106980;1254;60503;-80
2023/06/17 01:46:30;;;;;;;27.10;23.50;;;;;;;;;;106978;1253;60531;-81
2023/06/17 01:48:56;;;;;;;29.60;22.60;;;;;;;;;;107014;1257;60361;-80
2023/06/17 01:51:23;;;;;;;29.90;23.50;;;;;;;;;;107076;1251;60494;-81
2023/06/17 01:53:50;;;;;;;28.10;22.50;;;;;;;;;;107096;1251;60415;-79
2023/06/17 01:56:17;;;;;;;28.60;22.50;;;;;;;;;;107073;1251;60369;-81
2023/06/17 01:58:43;;;;;;;33.30;23.20;;;;;;;;;;107052;1251;60519;-81
2023/06/17 02:01:09;;;;;;;33.80;22.50;;;;;;;;;;107073;1251;60889;-80
2023/06/17 02:03:37;;;;;;;33.20;23.50;;;;;;;;;;107068;1251;60344;-81
2023/06/17 02:06:03;;;;;;;29.10;24.30;;;;;;;;;;107075;1251;60609;-80
2023/06/17 02:08:31;;;;;;;30.00;23.50;;;;;;;;;;107112;1251;60421;-79
2023/06/17 02:10:57;;;;;;;27.80;22.50;;;;;;;;;;107010;1253;60482;-80
2023/06/17 02:13:24;;;;;;;26.70;21.30;;;;;;;;;;107098;1251;60537;-79
2023/06/17 02:15:50;;;;;;;27.40;21.30;;;;;;;;;;107052;1251;61066;-81
2023/06/17 02:18:17;;;;;;;29.00;23.10;;;;;;;;;;107106;1251;60376;-82
2023/06/17 02:20:43;;;;;;;30.20;22.40;;;;;;;;;;107115;1251;60414;-79
2023/06/17 02:23:10;;;;;;;30.30;23.30;;;;;;;;;;106991;1253;60576;-79
2023/06/17 02:25:39;;;;;;;27.20;21.90;;;;;;;;;;107245;1253;60449;-81
2023/06/17 02:28:06;;;;;;;29.40;21.60;;;;;;;;;;107023;1256;61175;-79
2023/06/17 02:30:32;;;;;;;28.40;21.50;;;;;;;;;;108179;1254;60267;-81
2023/06/17 02:33:02;;;;;;;28.70;21.60;;;;;;;;;;106782;1254;60332;-79
2023/06/17 02:35:29;;;;;;;27.80;21.90;;;;;;;;;;106829;1253;60553;-80
2023/06/17 02:37:55;;;;;;;28.90;22.10;;;;;;;;;;106807;1254;60415;-81
2023/06/17 02:40:22;;;;;;;25.60;21.00;;;;;;;;;;106803;1254;60325;-79
2023/06/17 02:42:48;;;;;;;27.60;21.70;;;;;;;;;;106856;1255;60541;-81
2023/06/17 02:45:14;;;;;;;30.90;20.50;;;;;;;;;;106760;1254;60575;-81
2023/06/17 02:47:42;;;;;;;26.80;22.40;;;;;;;;;;106800;1257;60126;-79
2023/06/17 02:50:08;;;;;;;25.40;20.10;;;;;;;;;;107111;1251;60302;-81
2023/06/17 02:52:34;;;;;;;30.20;21.30;;;;;;;;;;107104;1251;60325;-79
2023/06/17 02:55:02;;;;;;;26.90;21.50;;;;;;;;;;107095;1251;60516;-81
2023/06/17 02:57:29;;;;;;;30.20;21.50;;;;;;;;;;107116;1251;60469;-81
2023/06/17 02:59:55;;;;;;;28.20;20.90;;;;;;;;;;107064;1251;60443;-81
2023/06/17 03:02:22;;;;;;;25.30;19.30;;;;;;;;;;107110;1257;60344;-79
2023/06/17 03:04:49;;;;;;;28.20;20.60;;;;;;;;;;107104;1251;60460;-81
2023/06/17 03:07:16;;;;;;;30.00;21.90;;;;;;;;;;107052;1251;61379;-81
2023/06/17 03:09:43;;;;;;;27.50;20.20;;;;;;;;;;107088;1251;60555;-79
2023/06/17 03:12:09;;;;;;;27.30;21.90;;;;;;;;;;107073;1255;59106;-82
2023/06/17 03:14:35;;;;;;;25.70;19.90;;;;;;;;;;107117;1255;60281;-81
2023/06/17 03:17:02;;;;;;;28.70;21.00;;;;;;;;;;107042;1255;60332;-79
2023/06/17 03:19:29;;;;;;;25.90;20.10;;;;;;;;;;107127;1251;60415;-79
2023/06/17 03:21:55;;;;;;;34.10;23.10;;;;;;;;;;107012;1254;60452;-81
2023/06/17 03:24:22;;;;;;;26.20;21.10;;;;;;;;;;107055;1254;60422;-79
2023/06/17 03:26:48;;;;;;;26.80;20.10;;;;;;;;;;106948;1256;60346;-79
2023/06/17 03:29:15;;;;;;;23.70;18.80;;;;;;;;;;106907;1258;60540;-81
2023/06/17 03:31:41;;;;;;;29.20;20.20;;;;;;;;;;107028;1253;60492;-81
2023/06/17 03:34:08;;;;;;;24.80;19.00;;;;;;;;;;106961;1253;60625;-79
2023/06/17 03:36:34;;;;;;;25.20;20.10;;;;;;;;;;106970;1257;60378;-80
2023/06/17 03:39:00;;;;;;;27.50;19.80;;;;;;;;;;106972;1253;60415;-81
2023/06/17 03:41:27;;;;;;;28.20;21.10;;;;;;;;;;107007;1254;60556;-79
2023/06/17 03:43:53;;;;;;;27.40;20.00;;;;;;;;;;107003;1256;60533;-81
2023/06/17 03:46:20;;;;;;;25.30;19.70;;;;;;;;;;106974;1254;60496;-81
2023/06/17 03:48:46;;;;;;;29.60;19.20;;;;;;;;;;107109;1251;60459;-79
2023/06/17 03:51:13;;;;;;;25.30;19.70;;;;;;;;;;107066;1256;60517;-81
2023/06/17 03:53:40;;;;;;;26.60;18.60;;;;;;;;;;107090;1251;60546;-81
2023/06/17 03:56:06;;;;;;;26.30;19.80;;;;;;;;;;107040;1251;60424;-79
2023/06/17 03:58:33;;;;;;;24.70;19.00;;;;;;;;;;107088;1256;60446;-80
2023/06/17 04:00:59;;;;;;;25.00;19.50;;;;;;;;;;107041;1251;60540;-79
2023/06/17 04:03:26;;;;;;;23.80;18.80;;;;;;;;;;107049;1251;62653;-81
2023/06/17 04:05:52;;;;;;;23.20;18.10;;;;;;;;;;107073;1251;60401;-80
2023/06/17 04:08:22;;;;;;;21.80;17.40;;;;;;;;;;107009;1251;60405;-81
2023/06/17 04:10:49;;;;;;;;;;;;;;;;;;107068;1257;60778;-80
2023/06/17 04:13:16;;;;;;;24.80;17.10;;;;;;;;;;107094;1251;60441;-79
2023/06/17 04:15:42;;;;;;;23.80;16.90;;;;;;;;;;107134;1254;60316;-81
2023/06/17 04:18:09;;;;;;;22.40;17.70;;;;;;;;;;107048;1251;62200;-82
2023/06/17 04:20:35;;;;;;;21.70;17.30;;;;;;;;;;107098;1251;60332;-82
2023/06/17 04:23:02;;;;;;;23.50;18.30;;;;;;;;;;106993;1253;60427;-79
2023/06/17 04:25:32;;;;;;;25.10;17.60;;;;;;;;;;106981;1257;60524;-81
2023/06/17 04:28:01;;;;;;;25.10;18.30;;;;;;;;;;106988;1254;60368;-81
2023/06/17 04:30:27;;;;;;;26.30;20.70;;;;;;;;;;107044;1253;62003;-81
2023/06/17 04:33:00;;;;;;;20.60;17.00;;;;;;;;;;106753;1254;60448;-81
2023/06/17 04:35:26;;;;;;;22.30;18.00;;;;;;;;;;106739;1254;60712;-79
2023/06/17 04:37:53;;;;;;;20.90;15.70;;;;;;;;;;106807;1254;60466;-79
2023/06/17 04:40:22;;;;;;;23.10;17.00;;;;;;;;;;106797;1257;60288;-79
2023/06/17 04:42:49;;;;;;;21.50;16.40;;;;;;;;;;106760;1257;61175;-81
2023/06/17 04:45:17;;;;;;;21.90;16.80;;;;;;;;;;106853;1254;60559;-79
2023/06/17 04:47:46;;;;;;;26.50;18.70;;;;;;;;;;106769;1254;61132;-82
2023/06/17 04:50:15;;;;;;;22.30;17.60;;;;;;;;;;107069;1251;60508;-82
2023/06/17 04:52:47;;;;;;;22.80;16.90;;;;;;;;;;107136;1251;60200;-81
2023/06/17 04:55:14;;;;;;;19.50;16.50;;;;;;;;;;107028;1251;61184;-82
2023/06/17 04:57:43;;;;;;;22.30;17.00;;;;;;;;;;107352;1251;61092;-80
2023/06/17 05:00:12;;;;;;;19.10;15.70;;;;;;;;;;107097;1251;60438;-82
2023/06/17 05:02:38;;;;;;;;;;;;;;;;;;107077;1251;60607;-80
2023/06/17 05:05:05;;;;;;;22.90;14.70;;;;;;;;;;107070;1251;60302;-82
2023/06/17 05:07:32;;;;;;;25.50;19.10;;;;;;;;;;107127;1251;62380;-80
2023/06/17 05:09:59;;;;;;;22.60;17.10;;;;;;;;;;107067;1257;60473;-80
2023/06/17 05:12:26;;;;;;;20.60;14.70;;;;;;;;;;107057;1251;60853;-82
2023/06/17 05:14:52;;;;;;;19.00;14.90;;;;;;;;;;107061;1251;60540;-80
2023/06/17 05:17:18;;;;;;;19.60;14.80;;;;;;;;;;107068;1251;60523;-81
2023/06/17 05:19:45;;;;;;;20.10;14.30;;;;;;;;;;107082;1256;60483;-80
2023/06/17 05:22:11;;;;;;;18.80;15.20;;;;;;;;;;107101;1251;60399;-80
2023/06/17 05:24:37;;;;;;;16.20;13.10;;;;;;;;;;107018;1254;60464;-80
2023/06/17 05:27:04;;;;;;;17.30;14.10;;;;;;;;;;107040;1256;60530;-82
2023/06/17 05:29:30;;;;;;;15.10;13.50;;;;;;;;;;107036;1253;60530;-80
2023/06/17 05:31:57;;;;;;;17.30;12.60;;;;;;;;;;107055;1253;60413;-84
2023/06/17 05:34:23;;;;;;;14.60;11.40;;;;;;;;;;107035;1253;60477;-81
2023/06/17 05:36:49;;;;;;;15.90;11.40;;;;;;;;;;107004;1253;60463;-82
2023/06/17 05:39:16;;;;;;;14.90;10.20;;;;;;;;;;106970;1252;61822;-80
2023/06/17 05:41:43;;;;;;;14.80;10.40;;;;;;;;;;106971;1253;60408;-80
2023/06/17 05:44:09;;;;;;;11.20;9.10;;;;;;;;;;107299;1254;60479;-82
2023/06/17 05:46:36;;;;;;;11.90;9.70;;;;;;;;;;107010;1256;60568;-80
2023/06/17 05:49:02;;;;;;;13.30;8.90;;;;;;;;;;107078;1251;60450;-79
2023/06/17 05:51:30;;;;;;;13.30;9.50;;;;;;;;;;107119;1251;60521;-77
2023/06/17 05:53:56;;;;;;;13.10;9.90;;;;;;;;;;106482;1251;61115;-80
2023/06/17 05:56:22;;;;;;;12.50;9.00;;;;;;;;;;106547;1251;60446;-80
2023/06/17 05:58:50;;;;;;;14.40;9.30;;;;;;;;;;106534;1251;60532;-82
2023/06/17 06:01:17;;;;;;;12.30;9.40;;;;;;;;;;107085;1251;61395;-80
2023/06/17 06:03:43;;;;;;;9.60;7.90;;;;;;;;;;106498;1251;60513;-79
2023/06/17 06:06:10;;;;;;;11.00;8.60;;;;;;;;;;106508;1251;60440;-80
2023/06/17 06:08:36;;;;;;;11.00;7.10;;;;;;;;;;107037;1251;60398;-82
2023/06/17 06:11:02;;;;;;;9.60;7.60;;;;;;;;;;107129;1256;60527;-80
2023/06/17 06:13:29;;;;;;;10.10;7.50;;;;;;;;;;109054;1251;58729;-78
2023/06/17 06:15:55;;;;;;;11.10;7.60;;;;;;;;;;106511;1255;60463;-82
2023/06/17 06:18:22;;;;;;;8.60;7.00;;;;;;;;;;107088;1251;60475;-80
2023/06/17 06:20:48;;;;;;;10.70;8.10;;;;;;;;;;107098;1253;60535;-82
2023/06/17 06:23:15;;;;;;;14.60;9.10;;;;;;;;;;107022;1253;60432;-80
2023/06/17 06:25:41;;;;;;;9.50;8.20;;;;;;;;;;107000;1253;60411;-80
2023/06/17 06:28:07;;;;;;;8.60;7.70;;;;;;;;;;107020;1253;60423;-77
2023/06/17 06:30:34;;;;;;;10.50;8.60;;;;;;;;;;106419;1256;60435;-82
2023/06/17 06:33:00;;;;;;;9.00;7.10;;;;;;;;;;106374;1257;60568;-82
2023/06/17 06:35:27;;;;;;;11.20;8.60;;;;;;;;;;106439;1253;60477;-82
2023/06/17 06:37:53;;;;;;;9.70;8.30;;;;;;;;;;106434;1256;60431;-79
2023/06/17 06:40:20;;;;;;;10.40;8.50;;;;;;;;;;107009;1253;60530;-81
2023/06/17 06:42:47;;;;;;;12.30;8.40;;;;;;;;;;107040;1253;60461;-81
2023/06/17 06:45:14;;;;;;;16.10;8.50;;;;;;;;;;106976;1256;60476;-82
2023/06/17 06:47:40;;;;;;;9.40;7.80;;;;;;;;;;107004;1253;61469;-82
2023/06/17 06:50:06;;;;;;;9.00;7.40;;;;;;;;;;107104;1251;60468;-82
2023/06/17 06:52:33;;;;;;;9.20;7.60;;;;;;;;;;106923;1253;60575;-81
2023/06/17 06:55:00;;;;;;;12.40;8.60;;;;;;;;;;106978;1251;60412;-79
2023/06/17 06:57:26;;;;;;;11.00;8.20;;;;;;;;;;106993;1253;58920;-82
2023/06/17 06:59:53;;;;;;;14.10;8.60;;;;;;;;;;107039;1251;60399;-83
2023/06/17 07:02:19;;;;;;;18.80;13.60;;;;;;;;;;106961;1253;60553;-80
2023/06/17 07:04:46;;;;;;;13.20;8.90;;;;;;;;;;106919;1257;60448;-81
2023/06/17 07:07:12;;;;;;;17.10;12.20;;;;;;;;;;106792;1252;150136;-80
2023/06/17 07:09:39;;;;;;;15.00;10.30;;;;;;;;;;106863;1254;60349;-82
2023/06/17 07:12:06;;;;;;;16.60;10.80;;;;;;;;;;107061;1255;60288;-82
2023/06/17 07:14:33;;;;;;;14.00;9.20;;;;;;;;;;106996;1255;60412;-79
2023/06/17 07:16:59;;;;;;;10.70;8.70;;;;;;;;;;106983;1252;60335;-80
2023/06/17 07:19:26;;;;;;;11.10;8.70;;;;;;;;;;106990;1256;60425;-80
2023/06/17 07:21:52;;;;;;;12.90;9.60;;;;;;;;;;106851;1257;59449;-81
2023/06/17 07:24:19;;;;;;;11.70;9.40;;;;;;;;;;106890;1253;60618;-82
2023/06/17 07:26:46;;;;;;;17.40;10.90;;;;;;;;;;107033;1253;60619;-82
2023/06/17 07:29:12;;;;;;;14.50;10.00;;;;;;;;;;107011;1256;60416;-82
2023/06/17 07:31:38;;;;;;;15.50;10.30;;;;;;;;;;106952;1252;60331;-81
2023/06/17 07:34:05;;;;;;;15.80;10.30;;;;;;;;;;106972;1252;60422;-82
2023/06/17 07:36:31;;;;;;;11.80;9.60;;;;;;;;;;106959;1253;60552;-81
2023/06/17 07:38:58;;;;;;;12.90;8.50;;;;;;;;;;106926;1257;60537;-79
2023/06/17 07:41:25;;;;;;;17.50;10.50;;;;;;;;;;106858;1253;60460;-80
2023/06/17 07:43:51;;;;;;;11.90;8.40;;;;;;;;;;106826;1254;60490;-82
2023/06/17 07:46:17;;;;;;;11.40;9.40;;;;;;;;;;106929;1253;59034;-79
2023/06/17 07:48:44;;;;;;;10.30;8.40;;;;;;;;;;107056;1252;60320;-80
2023/06/17 07:51:11;;;;;;;12.00;8.90;;;;;;;;;;106997;1252;60445;-82
2023/06/17 07:53:37;;;;;;;10.70;8.80;;;;;;;;;;106902;1254;60333;-82
2023/06/17 07:56:05;;;;;;;14.60;10.20;;;;;;;;;;106809;1254;61607;-82
2023/06/17 07:58:32;;;;;;;9.90;8.70;;;;;;;;;;106799;1255;61067;-82
2023/06/17 08:00:59;;;;;;;12.60;9.80;;;;;;;;;;106863;1252;60435;-82
2023/06/17 08:03:26;;;;;;;19.60;10.90;;;;;;;;;;107144;1251;60458;-82
2023/06/17 08:05:53;;;;;;;15.60;9.40;;;;;;;;;;107103;1254;61390;-80
2023/06/17 08:08:20;;;;;;;16.50;8.60;;;;;;;;;;108786;1251;59121;-82
2023/06/17 08:10:46;;;;;;;9.60;8.40;;;;;;;;;;107105;1256;61051;-80
2023/06/17 08:13:13;;;;;;;11.20;8.00;;;;;;;;;;106917;1253;60408;-80
2023/06/17 08:15:39;;;;;;;8.90;8.00;;;;;;;;;;107017;1253;60626;-82
2023/06/17 08:18:05;;;;;;;9.60;8.40;;;;;;;;;;106847;1253;60321;-80
2023/06/17 08:20:32;;;;;;;15.20;9.30;;;;;;;;;;106948;1255;60516;-80
2023/06/17 08:22:59;;;;;;;10.30;8.80;;;;;;;;;;106880;1253;61147;-81
2023/06/17 08:25:25;;;;;;;12.00;8.70;;;;;;;;;;106918;1254;59117;-80
2023/06/17 08:27:52;;;;;;;9.00;8.10;;;;;;;;;;106909;1253;60486;-80
2023/06/17 08:30:18;;;;;;;9.10;7.90;;;;;;;;;;106948;1254;60528;-83
2023/06/17 08:32:44;;;;;;;12.10;8.10;;;;;;;;;;106856;1252;60593;-83
2023/06/17 08:35:11;;;;;;;10.70;7.80;;;;;;;;;;106892;1254;60563;-83
2023/06/17 08:37:37;;;;;;;19.80;10.20;;;;;;;;;;106936;1253;60438;-83
2023/06/17 08:40:04;;;;;;;9.70;8.10;;;;;;;;;;106928;1254;60653;-83
2023/06/17 08:42:31;;;;;;;11.60;7.10;;;;;;;;;;106888;1252;60413;-80
2023/06/17 08:44:58;;;;;;;13.20;7.80;;;;;;;;;;106776;1258;60417;-83
2023/06/17 08:47:24;;;;;;;7.90;6.80;;;;;;;;;;106909;1257;60771;-83
2023/06/17 08:49:51;;;;;;;8.00;7.10;;;;;;;;;;107054;1251;60452;-80
2023/06/17 08:52:17;;;;;;;9.40;6.90;;;;;;;;;;107001;1256;60367;-81
2023/06/17 08:54:44;;;;;;;8.40;6.50;;;;;;;;;;106929;1252;60549;-80
2023/06/17 08:57:13;;;;;;;9.80;5.90;;;;;;;;;;107017;1253;60422;-80
2023/06/17 08:59:40;;;;;;;7.40;6.70;;;;;;;;;;107002;1252;62138;-83
2023/06/17 09:02:06;;;;;;;9.20;6.30;;;;;;;;;;107061;1256;60320;-80
2023/06/17 09:04:33;;;;;;;21.90;19.70;;;;;;;;;;107137;1251;60672;-81
2023/06/17 09:06:59;;;;;;;9.00;7.70;;;;;;;;;;106993;1251;60296;-80
2023/06/17 09:09:26;;;;;;;11.40;7.30;;;;;;;;;;107137;1251;60424;-80
2023/06/17 09:11:52;;;;;;;8.30;6.90;;;;;;;;;;107152;1255;60421;-80
2023/06/17 09:14:21;;;;;;;8.10;5.60;;;;;;;;;;107032;1252;59115;-83
2023/06/17 09:16:48;;;;;;;7.40;4.80;;;;;;;;;;106946;1253;60637;-80
2023/06/17 09:19:15;;;;;;;11.00;5.60;;;;;;;;;;106976;1253;60439;-80
2023/06/17 09:21:41;;;;;;;22.30;7.20;;;;;;;;;;107076;1257;60334;-83
2023/06/17 09:24:08;;;;;;;6.70;6.00;;;;;;;;;;106932;1253;59167;-80
2023/06/17 09:26:36;;;;;;;7.20;6.00;;;;;;;;;;107336;1252;58910;-82
2023/06/17 09:29:03;;;;;;;7.90;5.70;;;;;;;;;;106985;1257;60286;-80
2023/06/17 09:31:29;;;;;;;19.30;6.60;;;;;;;;;;107013;1256;60423;-80
2023/06/17 09:33:56;;;;;;;15.00;6.40;;;;;;;;;;107053;1252;60399;-83
2023/06/17 09:36:23;;;;;;;5.90;5.20;;;;;;;;;;106958;1253;60351;-83
2023/06/17 09:38:50;;;;;;;5.70;4.90;;;;;;;;;;107048;1253;60349;-83
2023/06/17 09:41:18;;;;;;;7.10;6.40;;;;;;;;;;107043;1252;60665;-80
2023/06/17 09:43:48;;;;;;;8.70;6.40;;;;;;;;;;107076;1256;60311;-83
2023/06/17 09:46:14;;;;;;;7.30;6.40;;;;;;;;;;106963;1252;60506;-83
2023/06/17 09:48:41;;;;;;;6.40;5.80;;;;;;;;;;106980;1251;62124;-80
2023/06/17 09:51:12;;;;;;;8.30;6.10;;;;;;;;;;107019;1253;59173;-83
2023/06/17 09:53:38;;;;;;;7.10;6.40;;;;;;;;;;106857;1257;60470;-83
2023/06/17 09:56:10;;;;;;;9.00;6.30;;;;;;;;;;106825;1252;60542;-80
2023/06/17 09:58:37;;;;;;;8.30;6.20;;;;;;;;;;106824;1257;60405;-83
2023/06/17 10:01:07;;;;;;;9.80;6.20;;;;;;;;;;106833;1252;61144;-80
2023/06/17 10:03:34;;;;;;;9.40;6.50;;;;;;;;;;107115;1253;60357;-80
2023/06/17 10:06:05;;;;;;;8.30;6.10;;;;;;;;;;107116;1251;60421;-81
2023/06/17 10:08:32;;;;;;;7.20;6.50;;;;;;;;;;107159;1251;60431;-82
2023/06/17 10:10:59;;;;;;;12.20;6.10;;;;;;;;;;107133;1251;60645;-83
2023/06/17 10:13:25;;;;;;;8.00;7.20;;;;;;;;;;106972;1257;62320;-82
2023/06/17 10:15:52;;;;;;;8.20;5.10;;;;;;;;;;107046;1253;60398;-80
2023/06/17 10:18:19;;;;;;;9.40;6.00;;;;;;;;;;107028;1253;60739;-83
2023/06/17 10:20:45;;;;;;;7.70;6.60;;;;;;;;;;107075;1253;60426;-83
2023/06/17 10:23:12;;;;;;;10.60;6.20;;;;;;;;;;107016;1252;60425;-83
2023/06/17 10:25:38;;;;;;;17.40;7.50;;;;;;;;;;107029;1253;60342;-80
2023/06/17 10:28:05;;;;;;;6.00;5.30;;;;;;;;;;106883;1253;60393;-80
2023/06/17 10:30:32;;;;;;;6.10;5.50;;;;;;;;;;106944;1253;60592;-82
2023/06/17 10:33:01;;;;;;;9.00;6.70;;;;;;;;;;107040;1253;60444;-82
2023/06/17 10:35:27;;;;;;;;;;;;;;;;;;106968;1253;60317;-82
2023/06/17 10:37:54;;;;;;;7.80;6.60;;;;;;;;;;106992;1257;60345;-83
2023/06/17 10:40:24;;;;;;;8.40;7.30;;;;;;;;;;107116;1253;58856;-80
2023/06/17 10:42:58;;;;;;;7.70;6.20;;;;;;;;;;106914;1253;60712;-83
2023/06/17 10:45:25;;;;;;;11.50;7.30;;;;;;;;;;107061;1255;60521;-83
2023/06/17 10:47:51;;;;;;;13.00;7.20;;;;;;;;;;107044;1253;60409;-81
2023/06/17 10:50:21;;;;;;;91.60;19.50;;;;;;;;;;107154;1251;60310;-80
2023/06/17 10:52:53;;;;;;;8.60;6.40;;;;;;;;;;107035;1254;60198;-81
2023/06/17 10:55:20;;;;;;;8.20;5.80;;;;;;;;;;107066;1252;60435;-83
2023/06/17 10:57:46;;;;;;;145.10;25.90;;;;;;;;;;106975;1257;60553;-82
2023/06/17 11:00:13;;;;;;;37.10;10.60;;;;;;;;;;106939;1252;60321;-81
2023/06/17 11:02:40;;;;;;;7.70;5.70;;;;;;;;;;106946;1252;61065;-80
2023/06/17 11:05:07;;;;;;;14.90;5.80;;;;;;;;;;107039;1253;60537;-82
2023/06/17 11:07:33;;;;;;;6.00;5.40;;;;;;;;;;106948;1256;60490;-83
2023/06/17 11:10:00;;;;;;;18.30;7.80;;;;;;;;;;107022;1253;60371;-83
2023/06/17 11:12:26;;;;;;;6.90;6.20;;;;;;;;;;107020;1254;59501;-81
2023/06/17 11:14:53;;;;;;;13.10;6.10;;;;;;;;;;107017;1256;60426;-80
2023/06/17 11:17:20;;;;;;;9.60;6.50;;;;;;;;;;107595;1252;60467;-80
2023/06/17 11:19:47;;;;;;;7.20;6.00;;;;;;;;;;107200;1252;60489;-83
2023/06/17 11:22:13;;;;;;;9.20;6.00;;;;;;;;;;108336;1252;58977;-81
2023/06/17 11:24:40;;;;;;;94.10;19.70;;;;;;;;;;109416;1253;58582;-81
2023/06/17 11:27:06;;;;;;;10.30;7.20;;;;;;;;;;109378;1253;58367;-84
2023/06/17 11:29:33;;;;;;;9.10;6.20;;;;;;;;;;109433;1252;58018;-81
2023/06/17 11:31:59;;;;;;;9.90;6.80;;;;;;;;;;109384;1252;58538;-83
2023/06/17 11:34:31;;;;;;;8.20;6.50;;;;;;;;;;108585;1253;58963;-81
2023/06/17 11:37:00;;;;;;;6.90;6.10;;;;;;;;;;106825;1253;60363;-81
2023/06/17 11:39:30;;;;;;;6.60;5.60;;;;;;;;;;106786;1256;61067;-81
2023/06/17 11:42:03;;;;;;;7.10;5.90;;;;;;;;;;106787;1251;60532;-83
2023/06/17 11:44:33;;;;;;;6.90;5.00;;;;;;;;;;106802;1253;61387;-84
2023/06/17 11:47:03;;;;;;;5.50;4.50;;;;;;;;;;106607;1253;61143;-83
2023/06/17 11:49:29;;;;;;;5.50;5.00;;;;;;;;;;106633;1251;60398;-83
2023/06/17 11:52:00;;;;;;;6.70;5.10;;;;;;;;;;106867;1253;59969;-82
2023/06/17 11:54:26;;;;;;;19.80;6.60;;;;;;;;;;106707;1253;60519;-82
2023/06/17 11:56:53;;;;;;;101.20;13.30;;;;;;;;;;106634;1258;60536;-80
2023/06/17 11:59:19;;;;;;;16.60;5.10;;;;;;;;;;106654;1252;60547;-81
2023/06/17 12:01:46;;;;;;;106.90;16.90;;;;;;;;;;106642;1253;60467;-83
2023/06/17 12:04:13;;;;;;;6.00;4.90;;;;;;;;;;106620;1253;60654;-81
2023/06/17 12:06:42;;;;;;;6.30;4.30;;;;;;;;;;106714;1253;60410;-81
2023/06/17 12:09:10;;;;;;;6.30;4.10;;;;;;;;;;106745;1251;60673;-81
2023/06/17 12:11:37;;;;;;;;;;;;;;;;;;106794;1252;60536;-84
2023/06/17 12:14:08;;;;;;;5.70;3.80;;;;;;;;;;106767;1251;60347;-81
2023/06/17 12:16:34;;;;;;;4.50;3.80;;;;;;;;;;106579;1252;60454;-81
2023/06/17 12:19:01;;;;;;;6.90;3.80;;;;;;;;;;106585;1252;60471;-84
2023/06/17 12:21:28;;;;;;;7.10;3.90;;;;;;;;;;106695;1252;60514;-83
2023/06/17 12:23:54;;;;;;;119.80;17.00;;;;;;;;;;106647;1253;60467;-84
2023/06/17 12:26:23;;;;;;;7.20;4.70;;;;;;;;;;106681;1256;60311;-81
2023/06/17 12:28:50;;;;;;;7.10;5.00;;;;;;;;;;106696;1253;61082;-81
2023/06/17 12:31:19;;;;;;;10.20;5.80;;;;;;;;;;106621;1257;60431;-83
2023/06/17 12:33:46;;;;;;;15.20;5.30;;;;;;;;;;106516;1252;60748;-83
2023/06/17 12:36:13;;;;;;;18.80;7.10;;;;;;;;;;106532;1252;60516;-83
2023/06/17 12:38:39;;;;;;;90.40;14.30;;;;;;;;;;106592;1252;60544;-81
2023/06/17 12:41:06;;;;;;;18.60;6.20;;;;;;;;;;106596;1256;60450;-82
2023/06/17 12:43:32;;;;;;;6.80;4.50;;;;;;;;;;106592;1256;60444;-78
2023/06/17 12:45:59;;;;;;;7.90;4.80;;;;;;;;;;106680;1253;60378;-80
2023/06/17 12:48:26;;;;;;;13.50;5.00;;;;;;;;;;106693;1251;60362;-82
2023/06/17 12:50:52;;;;;;;11.70;4.90;;;;;;;;;;106843;1255;60415;-80
2023/06/17 12:53:19;;;;;;;8.50;6.40;;;;;;;;;;106708;1251;61047;-80
2023/06/17 12:55:45;;;;;;;8.00;4.90;;;;;;;;;;106761;1251;59014;-83
2023/06/17 12:58:12;;;;;;;12.00;5.60;;;;;;;;;;106733;1251;60537;-82
2023/06/17 13:00:38;;;;;;;7.70;5.50;;;;;;;;;;106810;1251;60478;-80
2023/06/17 13:03:04;;;;;;;7.50;4.50;;;;;;;;;;106781;1256;60495;-83
2023/06/17 13:05:31;;;;;;;11.30;6.60;;;;;;;;;;106810;1251;60365;-82
2023/06/17 13:07:58;;;;;;;84.80;13.30;;;;;;;;;;106763;1251;60296;-80
2023/06/17 13:10:25;;;;;;;138.70;15.70;;;;;;;;;;106826;1251;60361;-82
2023/06/17 13:12:51;;;;;;;11.00;6.00;;;;;;;;;;106849;1256;60440;-80
2023/06/17 13:15:18;;;;;;;22.50;6.90;;;;;;;;;;106798;1251;60412;-82
2023/06/17 13:17:44;;;;;;;9.00;4.70;;;;;;;;;;106705;1251;60655;-82
2023/06/17 13:20:11;;;;;;;13.00;7.80;;;;;;;;;;106563;1256;60454;-80
2023/06/17 13:22:38;;;;;;;10.90;6.30;;;;;;;;;;106695;1253;60421;-80
2023/06/17 13:25:05;;;;;;;7.80;4.50;;;;;;;;;;106626;1253;60558;-80
2023/06/17 13:27:32;;;;;;;7.20;4.30;;;;;;;;;;106661;1258;60382;-83
2023/06/17 13:30:01;;;;;;;9.60;5.30;;;;;;;;;;106656;1253;60366;-82
2023/06/17 13:32:28;;;;;;;9.50;5.70;;;;;;;;;;106602;1252;60339;-79
2023/06/17 13:34:54;;;;;;;12.00;4.30;;;;;;;;;;106619;1257;60378;-80
2023/06/17 13:37:21;;;;;;;37.00;8.60;;;;;;;;;;106712;1257;60342;-83
2023/06/17 13:39:48;;;;;;;5.60;4.30;;;;;;;;;;106745;1253;60309;-82
2023/06/17 13:42:14;;;;;;;174.70;27.00;;;;;;;;;;106675;1253;62080;-80
2023/06/17 13:44:44;;;;;;;138.20;20.20;;;;;;;;;;106778;1251;60312;-83
2023/06/17 13:47:10;;;;;;;9.50;4.60;;;;;;;;;;107057;1251;60433;-82
2023/06/17 13:49:37;;;;;;;15.70;5.20;;;;;;;;;;106634;1255;60416;-83
2023/06/17 13:52:03;;;;;;;5.10;4.00;;;;;;;;;;106688;1253;60294;-80
2023/06/17 13:54:30;;;;;;;9.80;4.50;;;;;;;;;;106588;1257;60429;-82
2023/06/17 13:56:56;;;;;;;8.50;4.50;;;;;;;;;;106676;1253;60532;-80
2023/06/17 13:59:23;;;;;;;20.00;5.20;;;;;;;;;;106702;1254;60544;-82
2023/06/17 14:01:50;;;;;;;11.80;4.90;;;;;;;;;;106741;1253;60461;-83
2023/06/17 14:04:16;;;;;;;7.20;3.90;;;;;;;;;;106723;1253;60561;-80
2023/06/17 14:06:45;;;;;;;5.70;4.10;;;;;;;;;;106702;1253;61127;-83
2023/06/17 14:09:13;;;;;;;6.10;4.30;;;;;;;;;;106668;1253;60543;-79
2023/06/17 14:11:40;;;;;;;20.00;7.70;;;;;;;;;;106756;1258;60470;-79
2023/06/17 14:14:06;;;;;;;7.40;4.40;;;;;;;;;;106706;1253;60371;-81